createdAt,value
2018-09-21T00:01:18.231Z,19.80
2018-09-21T00:04:00.812Z,19.80
2018-09-21T00:06:28.814Z,19.80
2018-09-21T00:08:56.507Z,19.70
2018-09-21T00:11:24.115Z,19.70
2018-09-21T00:13:51.662Z,19.70
2018-09-21T00:16:20.256Z,19.60
2018-09-21T00:18:47.876Z,19.60
2018-09-21T00:21:15.948Z,19.60
2018-09-21T00:23:43.656Z,19.50
2018-09-21T00:26:11.311Z,19.50
2018-09-21T00:28:38.955Z,19.60
2018-09-21T00:31:07.105Z,19.50
2018-09-21T00:33:34.781Z,19.50
2018-09-21T00:36:02.522Z,19.50
2018-09-21T00:38:30.175Z,19.40
2018-09-21T00:40:57.751Z,19.50
2018-09-21T00:43:25.590Z,19.60
2018-09-21T00:45:53.192Z,19.60
2018-09-21T00:48:20.958Z,19.40
2018-09-21T00:50:48.515Z,19.40
2018-09-21T00:53:16.333Z,19.30
2018-09-21T00:55:43.956Z,19.30
2018-09-21T00:58:11.543Z,19.30
2018-09-21T01:00:39.189Z,19.30
2018-09-21T01:03:06.901Z,19.20
2018-09-21T01:05:34.557Z,19.20
2018-09-21T01:08:02.048Z,19.20
2018-09-21T01:10:30.808Z,19.20
2018-09-21T01:12:58.453Z,19.20
2018-09-21T01:15:26.023Z,19.20
2018-09-21T01:17:53.609Z,19.20
2018-09-21T01:20:21.699Z,19.30
2018-09-21T01:22:49.310Z,19.30
2018-09-21T01:25:16.955Z,19.30
2018-09-21T01:27:44.575Z,19.20
2018-09-21T01:30:12.234Z,19.20
2018-09-21T01:32:39.969Z,19.10
2018-09-21T01:35:07.441Z,19.10
2018-09-21T01:37:35.012Z,19.10
2018-09-21T01:40:02.783Z,19.10
2018-09-21T01:42:30.333Z,19.00
2018-09-21T01:44:58.498Z,19.00
2018-09-21T01:47:26.127Z,19.00
2018-09-21T01:49:54.099Z,18.90
2018-09-21T01:52:22.168Z,18.90
2018-09-21T01:54:49.969Z,18.80
2018-09-21T01:57:17.765Z,18.80
2018-09-21T01:59:45.692Z,18.80
2018-09-21T02:02:13.467Z,18.80
2018-09-21T02:04:41.288Z,18.60
2018-09-21T02:07:11.154Z,18.70
2018-09-21T02:09:39.163Z,18.70
2018-09-21T02:12:06.947Z,18.70
2018-09-21T02:14:35.302Z,18.70
2018-09-21T02:17:03.509Z,18.60
2018-09-21T02:19:31.793Z,18.50
2018-09-21T02:21:59.508Z,18.70
2018-09-21T02:24:27.233Z,18.60
2018-09-21T02:26:55.129Z,18.70
2018-09-21T02:29:22.927Z,18.70
2018-09-21T02:31:50.951Z,18.70
2018-09-21T02:34:19.142Z,18.80
2018-09-21T02:36:46.972Z,18.80
2018-09-21T02:39:14.807Z,18.70
2018-09-21T02:41:42.494Z,18.60
2018-09-21T02:44:10.494Z,18.50
2018-09-21T02:46:38.469Z,18.50
2018-09-21T02:49:06.201Z,18.50
2018-09-21T02:51:34.049Z,18.50
2018-09-21T02:54:02.249Z,18.60
2018-09-21T02:56:30.107Z,18.60
2018-09-21T02:58:57.772Z,18.60
2018-09-21T03:01:25.611Z,18.60
2018-09-21T03:03:53.380Z,18.50
2018-09-21T03:06:21.116Z,18.60
2018-09-21T03:08:48.785Z,18.60
2018-09-21T03:11:16.744Z,18.40
2018-09-21T03:13:44.315Z,18.40
2018-09-21T03:16:18.584Z,18.20
2018-09-21T03:18:46.541Z,18.20
2018-09-21T03:21:14.206Z,18.20
2018-09-21T03:23:41.768Z,18.10
2018-09-21T03:26:09.283Z,18.10
2018-09-21T03:28:36.851Z,18.10
2018-09-21T03:31:04.396Z,18.10
2018-09-21T03:33:32.165Z,18.10
2018-09-21T03:35:59.702Z,18.20
2018-09-21T03:38:27.179Z,18.10
2018-09-21T03:40:54.912Z,18.10
2018-09-21T03:43:22.496Z,18.10
2018-09-21T03:45:50.057Z,18.10
2018-09-21T03:48:17.654Z,18.10
2018-09-21T03:50:45.096Z,18.10
2018-09-21T03:53:12.571Z,18.20
2018-09-21T03:55:40.375Z,18.10
2018-09-21T03:58:07.829Z,18.00
2018-09-21T04:00:35.388Z,18.00
2018-09-21T04:03:02.920Z,18.00
2018-09-21T04:05:30.436Z,18.00
2018-09-21T04:07:57.919Z,17.90
2018-09-21T04:10:25.393Z,18.00
2018-09-21T04:12:52.841Z,18.00
2018-09-21T04:15:20.570Z,17.90
2018-09-21T04:17:48.111Z,17.90
2018-09-21T04:20:15.629Z,17.90
2018-09-21T04:22:47.887Z,17.90
2018-09-21T04:25:15.498Z,17.90
2018-09-21T04:27:43.003Z,17.90
2018-09-21T04:30:10.444Z,17.90
2018-09-21T04:32:37.923Z,17.90
2018-09-21T04:35:05.448Z,17.90
2018-09-21T04:37:32.923Z,17.90
2018-09-21T04:40:00.462Z,17.90
2018-09-21T04:42:27.938Z,17.90
2018-09-21T04:44:55.390Z,17.90
2018-09-21T04:47:22.957Z,18.00
2018-09-21T04:49:50.423Z,18.00
2018-09-21T04:52:17.876Z,18.10
2018-09-21T04:54:45.393Z,18.10
2018-09-21T04:57:13.479Z,18.10
2018-09-21T04:59:41.008Z,18.20
2018-09-21T05:02:08.562Z,18.10
2018-09-21T05:04:37.767Z,18.10
2018-09-21T05:07:05.473Z,18.10
2018-09-21T05:09:33.039Z,18.10
2018-09-21T05:12:00.553Z,18.10
2018-09-21T05:14:28.194Z,18.10
2018-09-21T05:16:55.759Z,18.00
2018-09-21T05:19:23.275Z,18.10
2018-09-21T05:21:50.819Z,18.10
2018-09-21T05:24:18.325Z,18.10
2018-09-21T05:26:45.948Z,18.10
2018-09-21T05:29:13.495Z,18.00
2018-09-21T05:31:41.420Z,18.00
2018-09-21T05:34:08.891Z,18.00
2018-09-21T05:36:36.399Z,18.00
2018-09-21T05:39:07.127Z,18.00
2018-09-21T05:41:35.208Z,18.00
2018-09-21T05:44:02.731Z,18.00
2018-09-21T05:46:30.390Z,18.00
2018-09-21T05:48:58.607Z,18.00
2018-09-21T05:51:26.107Z,18.00
2018-09-21T05:53:53.627Z,18.00
2018-09-21T05:56:21.783Z,18.10
2018-09-21T05:58:49.311Z,18.20
2018-09-21T06:01:16.823Z,18.10
2018-09-21T06:03:44.540Z,18.20
2018-09-21T06:06:12.228Z,18.20
2018-09-21T06:08:39.759Z,18.30
2018-09-21T06:11:07.315Z,18.30
2018-09-21T06:13:35.560Z,18.40
2018-09-21T06:16:02.992Z,18.40
2018-09-21T06:18:30.547Z,18.40
2018-09-21T06:20:58.147Z,18.40
2018-09-21T06:23:26.039Z,18.50
2018-09-21T06:25:54.080Z,18.60
2018-09-21T06:28:21.603Z,18.60
2018-09-21T06:30:51.005Z,18.70
2018-09-21T06:33:21.892Z,18.70
2018-09-21T06:35:51.591Z,18.70
2018-09-21T06:38:22.149Z,18.80
2018-09-21T06:40:56.248Z,18.80
2018-09-21T06:43:27.688Z,18.80
2018-09-21T06:46:01.247Z,18.80
2018-09-21T06:48:30.391Z,18.90
2018-09-21T06:51:01.636Z,18.90
2018-09-21T06:53:33.849Z,19.00
2018-09-21T06:56:03.339Z,19.00
2018-09-21T06:58:32.707Z,19.10
2018-09-21T07:01:02.910Z,19.20
2018-09-21T07:03:38.962Z,19.20
2018-09-21T07:06:07.001Z,19.30
2018-09-21T07:08:35.913Z,19.40
2018-09-21T07:11:08.446Z,19.40
2018-09-21T07:13:36.374Z,19.50
2018-09-21T07:16:06.441Z,19.60
2018-09-21T07:18:35.035Z,19.60
2018-09-21T07:21:08.464Z,19.60
2018-09-21T07:23:41.149Z,19.60
2018-09-21T07:26:09.141Z,19.60
2018-09-21T07:28:41.612Z,19.70
2018-09-21T07:31:13.022Z,19.60
2018-09-21T07:33:43.965Z,19.70
2018-09-21T07:36:13.539Z,19.70
2018-09-21T07:38:44.023Z,19.70
2018-09-21T07:41:13.149Z,19.80
2018-09-21T07:43:41.784Z,19.80
2018-09-21T07:46:11.134Z,19.90
2018-09-21T07:48:44.474Z,19.90
2018-09-21T07:51:16.062Z,20.00
2018-09-21T07:53:45.659Z,20.10
2018-09-21T07:56:14.265Z,20.10
2018-09-21T07:58:45.300Z,20.20
2018-09-21T08:01:14.845Z,20.20
2018-09-21T08:03:44.484Z,20.30
2018-09-21T08:06:13.771Z,20.30
2018-09-21T08:08:42.302Z,20.40
2018-09-21T08:11:11.828Z,20.30
2018-09-21T08:13:41.452Z,20.50
2018-09-21T08:16:10.625Z,20.50
2018-09-21T08:18:40.713Z,20.50
2018-09-21T08:21:08.900Z,20.40
2018-09-21T08:23:38.367Z,20.60
2018-09-21T08:26:06.794Z,20.70
2018-09-21T08:28:37.361Z,20.80
2018-09-21T08:31:05.864Z,20.80
2018-09-21T08:33:40.063Z,20.90
2018-09-21T08:36:15.057Z,20.90
2018-09-21T08:38:44.136Z,21.00
2018-09-21T08:41:13.225Z,21.10
2018-09-21T08:43:43.740Z,21.10
2018-09-21T08:46:16.934Z,21.10
2018-09-21T08:48:47.668Z,21.20
2018-09-21T08:51:24.553Z,21.20
2018-09-21T08:53:58.332Z,21.30
2018-09-21T08:56:33.754Z,21.40
2018-09-21T08:59:10.398Z,21.40
2018-09-21T09:01:39.818Z,21.50
2018-09-21T09:04:09.541Z,21.60
2018-09-21T09:06:38.205Z,21.60
2018-09-21T09:09:09.700Z,21.70
2018-09-21T09:11:38.642Z,21.70
2018-09-21T09:14:06.960Z,21.70
2018-09-21T09:16:35.336Z,21.80
2018-09-21T09:19:05.271Z,21.90
2018-09-21T09:21:33.452Z,21.90
2018-09-21T09:24:02.061Z,21.90
2018-09-21T09:26:32.630Z,22.00
2018-09-21T09:29:04.420Z,22.10
2018-09-21T09:31:40.343Z,22.10
2018-09-21T09:34:11.675Z,22.20
2018-09-21T09:36:45.701Z,22.20
2018-09-21T09:39:14.559Z,22.20
2018-09-21T09:41:44.154Z,22.20
2018-09-21T09:44:14.076Z,22.30
2018-09-21T09:46:43.127Z,22.50
2018-09-21T09:49:23.167Z,22.40
2018-09-21T09:52:19.675Z,22.50
2018-09-21T09:54:49.336Z,22.50
2018-09-21T09:57:23.276Z,22.60
2018-09-21T10:00:00.916Z,22.80
2018-09-21T10:02:34.918Z,22.90
2018-09-21T10:05:14.971Z,22.90
2018-09-21T10:07:47.947Z,23.00
2018-09-21T10:10:25.083Z,23.00
2018-09-21T10:12:55.914Z,23.10
2018-09-21T10:15:26.242Z,23.10
2018-09-21T10:18:19.355Z,23.10
2018-09-21T10:20:52.251Z,23.10
2018-09-21T10:23:27.016Z,23.00
2018-09-21T10:26:04.216Z,23.00
2018-09-21T10:28:34.359Z,22.90
2018-09-21T10:31:05.280Z,22.90
2018-09-21T10:33:40.879Z,22.90
2018-09-21T10:36:14.501Z,22.90
2018-09-21T10:38:49.126Z,22.90
2018-09-21T10:41:20.045Z,23.00
2018-09-21T10:44:02.239Z,22.90
2018-09-21T10:46:39.077Z,23.00
2018-09-21T10:51:54.579Z,22.90
2018-09-21T10:54:24.097Z,22.90
2018-09-21T11:00:34.825Z,22.90
2018-09-21T11:03:13.844Z,23.00
2018-09-21T11:05:42.985Z,23.10
2018-09-21T11:08:19.434Z,23.00
2018-09-21T11:10:57.892Z,22.90
2018-09-21T11:13:28.554Z,22.80
2018-09-21T11:15:59.424Z,22.90
2018-09-21T11:18:34.257Z,22.90
2018-09-21T11:21:04.180Z,22.90
2018-09-21T11:23:34.208Z,23.00
2018-09-21T11:26:04.716Z,23.00
2018-09-21T11:28:36.294Z,23.10
2018-09-21T11:31:14.607Z,23.30
2018-09-21T11:33:43.480Z,23.40
2018-09-21T11:36:11.720Z,23.40
2018-09-21T11:38:42.190Z,23.20
2018-09-21T11:41:22.851Z,23.30
2018-09-21T11:43:58.727Z,23.40
2018-09-21T11:49:11.819Z,23.60
2018-09-21T11:54:34.212Z,23.70
2018-09-21T11:57:14.098Z,23.70
2018-09-21T12:07:57.164Z,23.60
2018-09-21T12:10:28.752Z,23.80
2018-09-21T12:15:44.177Z,23.60
2018-09-21T12:18:15.935Z,23.50
2018-09-21T12:20:45.986Z,23.40
2018-09-21T12:23:16.851Z,23.40
2018-09-21T12:29:41.440Z,23.30
2018-09-21T12:32:15.023Z,23.10
2018-09-21T12:34:44.515Z,22.90
2018-09-21T12:37:21.132Z,22.70
2018-09-21T12:39:50.869Z,22.50
2018-09-21T12:42:21.239Z,22.40
2018-09-21T12:44:49.317Z,22.40
2018-09-21T12:47:19.676Z,22.40
2018-09-21T12:49:50.633Z,22.40
2018-09-21T12:52:19.366Z,22.30
2018-09-21T12:54:57.183Z,21.80
2018-09-21T12:57:27.135Z,22.00
2018-09-21T13:00:02.183Z,21.80
2018-09-21T13:02:36.061Z,21.60
2018-09-21T13:05:04.468Z,21.50
2018-09-21T13:07:32.799Z,21.50
2018-09-21T13:10:08.416Z,21.60
2018-09-21T13:12:43.650Z,21.70
2018-09-21T13:20:43.246Z,19.30
2018-09-21T13:23:13.897Z,18.50
2018-09-21T13:28:32.848Z,17.80
2018-09-21T13:31:04.270Z,17.70
2018-09-21T13:39:44.361Z,16.80
2018-09-21T13:42:20.725Z,16.70
2018-09-21T13:44:53.724Z,16.20
2018-09-21T13:47:27.525Z,16.30
2018-09-21T13:49:56.558Z,16.00
2018-09-21T13:52:29.023Z,15.90
2018-09-21T13:54:58.138Z,15.90
2018-09-21T13:57:26.836Z,16.00
2018-09-21T13:59:56.182Z,16.00
2018-09-21T14:02:29.249Z,15.90
2018-09-21T14:04:59.549Z,15.90
2018-09-21T14:07:30.646Z,15.70
2018-09-21T14:10:33.814Z,15.80
2018-09-21T14:13:03.538Z,15.60
2018-09-21T14:19:43.239Z,15.30
2018-09-21T14:25:01.395Z,15.00
2018-09-21T14:27:40.693Z,15.00
2018-09-21T14:30:11.664Z,15.10
2018-09-21T14:32:42.525Z,15.20
2018-09-21T14:35:18.178Z,15.20
2018-09-21T14:37:48.524Z,15.20
2018-09-21T14:40:21.395Z,15.10
2018-09-21T14:42:50.178Z,15.20
2018-09-21T14:45:18.657Z,15.50
2018-09-21T14:47:48.457Z,15.30
2018-09-21T14:50:22.869Z,15.00
2018-09-21T14:52:58.252Z,15.00
2018-09-21T14:55:26.936Z,15.00
2018-09-21T14:57:55.936Z,15.40
2018-09-21T15:00:27.284Z,15.80
2018-09-21T15:02:57.694Z,15.70
2018-09-21T15:05:29.163Z,15.70
2018-09-21T15:07:57.319Z,15.70
2018-09-21T15:10:28.004Z,15.70
2018-09-21T15:12:58.538Z,15.80
2018-09-21T15:15:26.825Z,15.60
2018-09-21T15:17:56.551Z,15.60
2018-09-21T15:20:25.876Z,15.60
2018-09-21T15:22:55.804Z,15.60
2018-09-21T15:25:25.223Z,15.80
2018-09-21T15:27:59.462Z,15.90
2018-09-21T15:30:28.241Z,16.00
2018-09-21T15:33:02.225Z,15.90
2018-09-21T15:35:30.637Z,15.80
2018-09-21T15:38:04.334Z,16.00
2018-09-21T15:40:52.800Z,16.00
2018-09-21T15:46:18.965Z,16.20
2018-09-21T15:48:49.549Z,16.30
2018-09-21T15:51:21.124Z,16.30
2018-09-21T15:53:50.692Z,16.50
2018-09-21T15:56:19.485Z,16.40
2018-09-21T15:58:47.609Z,16.30
2018-09-21T16:01:22.499Z,16.40
2018-09-21T16:03:52.570Z,16.50
2018-09-21T16:06:25.258Z,16.40
2018-09-21T16:08:54.034Z,16.50
2018-09-21T16:11:25.202Z,16.50
2018-09-21T16:13:55.412Z,16.50
2018-09-21T16:16:24.261Z,16.40
2018-09-21T16:18:53.277Z,16.50
2018-09-21T16:21:22.631Z,16.50
2018-09-21T16:23:50.336Z,16.40
2018-09-21T16:26:18.961Z,16.20
2018-09-21T16:28:46.811Z,16.30
2018-09-21T16:31:14.751Z,16.10
2018-09-21T16:33:42.564Z,16.00
2018-09-21T16:36:11.510Z,15.90
2018-09-21T16:38:39.807Z,15.80
2018-09-21T16:41:08.143Z,15.80
2018-09-21T16:43:36.667Z,15.90
2018-09-21T16:46:05.551Z,15.90
2018-09-21T16:48:35.016Z,15.80
2018-09-21T16:51:07.054Z,15.90
2018-09-21T16:53:39.342Z,15.80
2018-09-21T16:56:10.067Z,15.80
2018-09-21T16:58:38.046Z,15.90
2018-09-21T17:01:06.818Z,15.80
2018-09-21T17:03:39.606Z,15.80
2018-09-21T17:06:07.639Z,15.80
2018-09-21T17:08:35.324Z,15.80
2018-09-21T17:11:03.085Z,15.80
2018-09-21T17:13:30.730Z,15.80
2018-09-21T17:15:59.820Z,15.80
2018-09-21T17:18:28.015Z,15.80
2018-09-21T17:20:56.130Z,15.80
2018-09-21T17:23:24.652Z,15.80
2018-09-21T17:25:53.131Z,15.80
2018-09-21T17:28:22.337Z,15.80
2018-09-21T17:30:51.019Z,15.80
2018-09-21T17:33:26.604Z,15.80
2018-09-21T17:35:55.412Z,15.80
2018-09-21T17:38:28.744Z,15.50
2018-09-21T17:40:56.832Z,15.70
2018-09-21T17:43:24.941Z,15.70
2018-09-21T17:45:52.730Z,15.70
2018-09-21T17:48:21.692Z,15.60
2018-09-21T17:50:54.516Z,15.70
2018-09-21T17:53:22.632Z,15.60
2018-09-21T17:56:00.202Z,15.60
2018-09-21T17:58:28.485Z,15.60
2018-09-21T18:03:57.613Z,15.60
2018-09-21T18:06:27.127Z,15.50
2018-09-21T18:08:59.647Z,15.60
2018-09-21T18:11:32.430Z,15.60
2018-09-21T18:14:01.339Z,15.60
2018-09-21T18:16:29.012Z,15.60
2018-09-21T18:19:07.460Z,15.60
2018-09-21T18:21:36.264Z,15.60
2018-09-21T18:24:05.072Z,15.60
2018-09-21T18:26:33.779Z,15.60
2018-09-21T18:29:02.482Z,15.60
2018-09-21T18:31:35.356Z,15.60
2018-09-21T18:34:03.592Z,15.60
2018-09-21T18:36:32.028Z,15.60
2018-09-21T18:39:01.252Z,15.60
2018-09-21T18:41:31.903Z,15.60
2018-09-21T18:44:02.903Z,15.60
2018-09-21T18:46:30.727Z,15.60
2018-09-21T18:49:03.025Z,15.70
2018-09-21T18:51:32.705Z,15.70
2018-09-21T18:54:06.523Z,15.60
2018-09-21T18:56:40.759Z,15.60
2018-09-21T18:59:12.292Z,15.60
2018-09-21T19:01:41.160Z,15.70
2018-09-21T19:04:09.400Z,15.60
2018-09-21T19:06:38.389Z,15.50
2018-09-21T19:09:09.920Z,15.70
2018-09-21T19:11:38.000Z,15.70
2018-09-21T19:14:07.937Z,15.60
2018-09-21T19:16:41.105Z,15.60
2018-09-21T19:19:10.182Z,15.60
2018-09-21T19:21:45.056Z,15.60
2018-09-21T19:24:15.263Z,15.50
2018-09-21T19:26:43.879Z,15.60
2018-09-21T19:29:14.329Z,15.60
2018-09-21T19:31:47.468Z,15.60
2018-09-21T19:34:17.133Z,15.70
2018-09-21T19:36:45.629Z,15.70
2018-09-21T19:39:15.991Z,15.60
2018-09-21T19:41:46.124Z,15.60
2018-09-21T19:44:22.623Z,15.60
2018-09-21T19:46:51.220Z,15.60
2018-09-21T19:49:23.856Z,15.50
2018-09-21T19:51:55.856Z,15.40
2018-09-21T19:54:25.279Z,15.50
2018-09-21T19:56:58.333Z,15.50
2018-09-21T19:59:26.203Z,15.50
2018-09-21T20:01:53.782Z,15.50
2018-09-21T20:04:21.641Z,15.50
2018-09-21T20:06:49.633Z,15.50
2018-09-21T20:09:17.433Z,15.40
2018-09-21T20:11:45.729Z,15.50
2018-09-21T20:14:13.330Z,15.40
2018-09-21T20:16:42.549Z,15.30
2018-09-21T20:19:10.345Z,15.30
2018-09-21T20:21:42.475Z,15.30
2018-09-21T20:24:10.131Z,15.30
2018-09-21T20:26:37.774Z,15.20
2018-09-21T20:29:05.743Z,15.30
2018-09-21T20:31:39.039Z,15.30
2018-09-21T20:34:06.742Z,15.30
2018-09-21T20:36:34.387Z,15.30
2018-09-21T20:39:02.220Z,15.30
2018-09-21T20:41:29.889Z,15.20
2018-09-21T20:43:57.464Z,15.20
2018-09-21T20:46:25.161Z,15.30
2018-09-21T20:48:53.192Z,15.20
2018-09-21T20:51:20.799Z,15.20
2018-09-21T20:53:48.719Z,15.20
2018-09-21T20:56:16.245Z,15.10
2018-09-21T20:58:43.828Z,15.10
2018-09-21T21:01:11.303Z,15.10
2018-09-21T21:03:38.893Z,15.00
2018-09-21T21:06:06.507Z,15.00
2018-09-21T21:08:34.147Z,15.10
2018-09-21T21:11:01.710Z,15.00
2018-09-21T21:13:29.352Z,15.00
2018-09-21T21:15:56.900Z,15.00
2018-09-21T21:18:24.536Z,15.10
2018-09-21T21:20:52.012Z,15.10
2018-09-21T21:23:19.545Z,15.20
2018-09-21T21:25:47.080Z,15.20
2018-09-21T21:28:14.706Z,15.10
2018-09-21T21:30:42.254Z,15.10
2018-09-21T21:33:09.856Z,15.10
2018-09-21T21:35:37.465Z,15.10
2018-09-21T21:38:05.182Z,15.10
2018-09-21T21:40:32.792Z,15.00
2018-09-21T21:43:00.355Z,15.00
2018-09-21T21:45:27.860Z,15.00
2018-09-21T21:47:55.323Z,15.00
2018-09-21T21:50:22.854Z,15.00
2018-09-21T21:52:50.491Z,15.00
2018-09-21T21:55:17.981Z,15.00
2018-09-21T21:57:45.538Z,15.00
2018-09-21T22:00:13.109Z,15.00
2018-09-21T22:02:40.670Z,15.10
2018-09-21T22:05:08.277Z,15.10
2018-09-21T22:07:36.972Z,15.10
2018-09-21T22:10:05.772Z,15.10
2018-09-21T22:12:38.732Z,15.10
2018-09-21T22:15:21.156Z,15.10
2018-09-21T22:17:49.475Z,15.00
2018-09-21T22:20:17.228Z,15.00
2018-09-21T22:22:44.780Z,14.90
2018-09-21T22:25:12.400Z,14.80
2018-09-21T22:27:40.526Z,14.80
2018-09-21T22:30:08.567Z,14.80
2018-09-21T22:32:36.197Z,14.70
2018-09-21T22:35:03.890Z,14.70
2018-09-21T22:37:31.470Z,14.70
2018-09-21T22:39:58.990Z,14.60
2018-09-21T22:42:26.597Z,14.60
2018-09-21T22:44:54.201Z,14.60
2018-09-21T22:47:21.671Z,14.60
2018-09-21T22:49:49.752Z,14.60
2018-09-21T22:52:17.316Z,14.60
2018-09-21T22:54:44.883Z,14.60
2018-09-21T22:57:12.635Z,14.60
2018-09-21T22:59:40.317Z,14.60
2018-09-21T23:02:07.895Z,14.60
2018-09-21T23:04:35.398Z,14.60
2018-09-21T23:07:02.947Z,14.50
2018-09-21T23:09:30.496Z,14.60
2018-09-21T23:11:58.515Z,14.50
2018-09-21T23:14:26.209Z,14.50
2018-09-21T23:16:53.905Z,14.40
2018-09-21T23:19:21.524Z,14.50
2018-09-21T23:21:49.262Z,14.50
2018-09-21T23:24:16.864Z,14.30
2018-09-21T23:26:44.391Z,14.50
2018-09-21T23:29:11.853Z,14.50
2018-09-21T23:31:39.444Z,14.60
2018-09-21T23:34:07.028Z,14.60
2018-09-21T23:36:34.711Z,14.60
2018-09-21T23:39:04.183Z,14.60
2018-09-21T23:41:31.695Z,14.50
2018-09-21T23:43:59.396Z,14.50
2018-09-21T23:46:26.960Z,14.50
2018-09-21T23:48:54.518Z,14.50
2018-09-21T23:51:22.051Z,14.50
2018-09-21T23:53:49.664Z,14.50
2018-09-21T23:56:17.271Z,14.40
2018-09-21T23:58:44.882Z,14.20
